sensor_id;sensor_type;location;lat;lon;timestamp;temperature;humidity
16040;DHT22;8124;48.634;8.120;2023-01-15T00:02:55;13.50;99.90
16040;DHT22;8124;48.634;8.120;2023-01-15T00:08:00;13.60;99.90
16040;DHT22;8124;48.634;8.120;2023-01-15T00:13:03;13.60;99.90
16040;DHT22;8124;48.634;8.120;2023-01-15T00:18:05;13.60;99.90
16040;DHT22;8124;48.634;8.120;2023-01-15T00:23:10;13.70;99.90
16040;DHT22;8124;48.634;8.120;2023-01-15T00:28:33;13.70;99.90
16040;DHT22;8124;48.634;8.120;2023-01-15T00:33:36;13.70;99.90
16040;DHT22;8124;48.634;8.120;2023-01-15T00:38:40;13.80;99.90
16040;DHT22;8124;48.634;8.120;2023-01-15T00:43:43;13.70;99.90
16040;DHT22;8124;48.634;8.120;2023-01-15T00:48:52;13.80;99.90
16040;DHT22;8124;48.634;8.120;2023-01-15T00:53:57;13.80;99.90
16040;DHT22;8124;48.634;8.120;2023-01-15T00:59:01;13.90;99.90
16040;DHT22;8124;48.634;8.120;2023-01-15T01:04:04;13.80;99.90
16040;DHT22;8124;48.634;8.120;2023-01-15T01:09:12;13.70;99.90
16040;DHT22;8124;48.634;8.120;2023-01-15T01:14:15;13.80;99.90
16040;DHT22;8124;48.634;8.120;2023-01-15T01:19:20;13.70;99.90
16040;DHT22;8124;48.634;8.120;2023-01-15T01:24:25;13.70;99.90
16040;DHT22;8124;48.634;8.120;2023-01-15T01:29:28;13.70;99.90
16040;DHT22;8124;48.634;8.120;2023-01-15T01:34:45;13.70;99.90
16040;DHT22;8124;48.634;8.120;2023-01-15T01:39:49;13.70;99.90
16040;DHT22;8124;48.634;8.120;2023-01-15T01:45:00;13.70;99.90
16040;DHT22;8124;48.634;8.120;2023-01-15T01:50:07;13.80;99.90
16040;DHT22;8124;48.634;8.120;2023-01-15T01:55:15;13.90;99.90
16040;DHT22;8124;48.634;8.120;2023-01-15T02:00:29;13.90;99.90
16040;DHT22;8124;48.634;8.120;2023-01-15T02:05:42;13.90;99.90
16040;DHT22;8124;48.634;8.120;2023-01-15T02:10:52;13.90;99.90
16040;DHT22;8124;48.634;8.120;2023-01-15T02:16:08;13.90;99.90
16040;DHT22;8124;48.634;8.120;2023-01-15T02:21:21;13.90;99.90
16040;DHT22;8124;48.634;8.120;2023-01-15T02:32:09;13.80;99.90
16040;DHT22;8124;48.634;8.120;2023-01-15T02:37:19;13.80;99.90
16040;DHT22;8124;48.634;8.120;2023-01-15T02:42:26;13.70;99.90
16040;DHT22;8124;48.634;8.120;2023-01-15T02:53:14;13.70;99.90
16040;DHT22;8124;48.634;8.120;2023-01-15T02:58:23;13.70;99.90
16040;DHT22;8124;48.634;8.120;2023-01-15T03:03:36;13.80;99.90
16040;DHT22;8124;48.634;8.120;2023-01-15T03:08:41;13.80;99.90
16040;DHT22;8124;48.634;8.120;2023-01-15T03:13:47;13.80;99.90
16040;DHT22;8124;48.634;8.120;2023-01-15T03:19:01;13.70;99.90
16040;DHT22;8124;48.634;8.120;2023-01-15T03:24:09;13.80;99.90
16040;DHT22;8124;48.634;8.120;2023-01-15T03:29:24;13.70;99.90
16040;DHT22;8124;48.634;8.120;2023-01-15T03:34:35;13.70;99.90
16040;DHT22;8124;48.634;8.120;2023-01-15T03:39:41;13.70;99.90
16040;DHT22;8124;48.634;8.120;2023-01-15T03:45:05;13.70;99.90
16040;DHT22;8124;48.634;8.120;2023-01-15T03:50:17;13.70;99.90
16040;DHT22;8124;48.634;8.120;2023-01-15T03:55:29;13.60;99.90
16040;DHT22;8124;48.634;8.120;2023-01-15T04:00:42;13.70;99.90
16040;DHT22;8124;48.634;8.120;2023-01-15T04:05:48;13.70;99.90
16040;DHT22;8124;48.634;8.120;2023-01-15T04:10:54;13.60;99.90
16040;DHT22;8124;48.634;8.120;2023-01-15T04:16:03;13.60;99.90
16040;DHT22;8124;48.634;8.120;2023-01-15T04:21:06;13.70;99.90
16040;DHT22;8124;48.634;8.120;2023-01-15T04:26:09;13.30;99.90
16040;DHT22;8124;48.634;8.120;2023-01-15T04:31:13;12.40;99.90
16040;DHT22;8124;48.634;8.120;2023-01-15T04:36:17;12.00;99.90
16040;DHT22;8124;48.634;8.120;2023-01-15T04:41:19;11.90;99.90
16040;DHT22;8124;48.634;8.120;2023-01-15T04:46:43;11.90;99.90
16040;DHT22;8124;48.634;8.120;2023-01-15T04:51:46;11.50;99.90
16040;DHT22;8124;48.634;8.120;2023-01-15T04:56:51;11.40;99.90
16040;DHT22;8124;48.634;8.120;2023-01-15T05:01:55;11.80;99.90
16040;DHT22;8124;48.634;8.120;2023-01-15T05:07:05;11.20;99.90
16040;DHT22;8124;48.634;8.120;2023-01-15T05:12:08;11.20;99.90
16040;DHT22;8124;48.634;8.120;2023-01-15T05:17:13;11.40;99.90
16040;DHT22;8124;48.634;8.120;2023-01-15T05:22:15;11.60;99.90
16040;DHT22;8124;48.634;8.120;2023-01-15T05:27:18;11.70;99.90
16040;DHT22;8124;48.634;8.120;2023-01-15T05:32:23;11.90;99.90
16040;DHT22;8124;48.634;8.120;2023-01-15T05:37:28;12.00;99.90
16040;DHT22;8124;48.634;8.120;2023-01-15T05:42:31;11.90;99.90
16040;DHT22;8124;48.634;8.120;2023-01-15T05:47:35;11.70;99.90
16040;DHT22;8124;48.634;8.120;2023-01-15T05:52:38;11.60;99.90
16040;DHT22;8124;48.634;8.120;2023-01-15T05:57:41;11.60;99.90
16040;DHT22;8124;48.634;8.120;2023-01-15T06:02:48;11.70;99.90
16040;DHT22;8124;48.634;8.120;2023-01-15T06:07:52;11.70;99.90
16040;DHT22;8124;48.634;8.120;2023-01-15T06:12:55;11.60;99.90
16040;DHT22;8124;48.634;8.120;2023-01-15T06:17:59;11.40;99.90
16040;DHT22;8124;48.634;8.120;2023-01-15T06:23:02;11.10;99.90
16040;DHT22;8124;48.634;8.120;2023-01-15T06:28:06;11.00;99.90
16040;DHT22;8124;48.634;8.120;2023-01-15T06:33:10;11.00;99.90
16040;DHT22;8124;48.634;8.120;2023-01-15T06:38:13;11.10;99.90
16040;DHT22;8124;48.634;8.120;2023-01-15T06:43:16;10.80;99.90
16040;DHT22;8124;48.634;8.120;2023-01-15T06:48:38;10.60;99.90
16040;DHT22;8124;48.634;8.120;2023-01-15T06:53:41;10.70;99.90
16040;DHT22;8124;48.634;8.120;2023-01-15T06:58:44;10.30;99.90
16040;DHT22;8124;48.634;8.120;2023-01-15T07:03:48;10.20;99.90
16040;DHT22;8124;48.634;8.120;2023-01-15T07:08:51;10.10;99.90
16040;DHT22;8124;48.634;8.120;2023-01-15T07:13:54;10.00;99.90
16040;DHT22;8124;48.634;8.120;2023-01-15T07:19:08;9.50;99.90
16040;DHT22;8124;48.634;8.120;2023-01-15T07:24:11;9.70;99.90
16040;DHT22;8124;48.634;8.120;2023-01-15T07:29:18;9.90;99.90
16040;DHT22;8124;48.634;8.120;2023-01-15T07:34:23;10.00;99.90
16040;DHT22;8124;48.634;8.120;2023-01-15T07:39:26;10.10;99.90
16040;DHT22;8124;48.634;8.120;2023-01-15T07:44:32;10.30;99.90
16040;DHT22;8124;48.634;8.120;2023-01-15T07:50:00;10.60;99.90
16040;DHT22;8124;48.634;8.120;2023-01-15T07:55:04;10.70;99.90
16040;DHT22;8124;48.634;8.120;2023-01-15T08:00:11;9.80;99.90
16040;DHT22;8124;48.634;8.120;2023-01-15T08:05:16;9.70;99.90
16040;DHT22;8124;48.634;8.120;2023-01-15T08:10:19;9.50;99.90
16040;DHT22;8124;48.634;8.120;2023-01-15T08:15:22;9.60;99.90
16040;DHT22;8124;48.634;8.120;2023-01-15T08:20:26;9.80;99.90
16040;DHT22;8124;48.634;8.120;2023-01-15T08:25:29;9.60;99.90
16040;DHT22;8124;48.634;8.120;2023-01-15T08:30:32;9.80;99.90
16040;DHT22;8124;48.634;8.120;2023-01-15T08:35:37;9.70;99.90
16040;DHT22;8124;48.634;8.120;2023-01-15T08:40:42;9.80;99.90
16040;DHT22;8124;48.634;8.120;2023-01-15T08:46:11;9.90;99.90
16040;DHT22;8124;48.634;8.120;2023-01-15T08:51:14;10.50;99.90
16040;DHT22;8124;48.634;8.120;2023-01-15T08:56:18;10.10;99.90
16040;DHT22;8124;48.634;8.120;2023-01-15T09:01:22;9.90;99.90
16040;DHT22;8124;48.634;8.120;2023-01-15T09:06:27;9.90;99.90
16040;DHT22;8124;48.634;8.120;2023-01-15T09:11:29;10.00;99.90
16040;DHT22;8124;48.634;8.120;2023-01-15T09:16:34;10.00;99.90
16040;DHT22;8124;48.634;8.120;2023-01-15T09:21:37;9.80;99.90
16040;DHT22;8124;48.634;8.120;2023-01-15T09:26:40;9.80;99.90
16040;DHT22;8124;48.634;8.120;2023-01-15T09:31:45;9.70;99.90
16040;DHT22;8124;48.634;8.120;2023-01-15T09:36:48;9.70;99.90
16040;DHT22;8124;48.634;8.120;2023-01-15T09:42:01;9.50;99.90
16040;DHT22;8124;48.634;8.120;2023-01-15T09:47:13;9.00;99.90
16040;DHT22;8124;48.634;8.120;2023-01-15T09:52:25;9.00;99.90
16040;DHT22;8124;48.634;8.120;2023-01-15T09:57:31;9.20;99.90
16040;DHT22;8124;48.634;8.120;2023-01-15T10:02:40;9.20;99.90
16040;DHT22;8124;48.634;8.120;2023-01-15T10:07:52;9.30;99.90
16040;DHT22;8124;48.634;8.120;2023-01-15T10:13:00;9.30;99.90
16040;DHT22;8124;48.634;8.120;2023-01-15T10:18:05;9.30;99.90
16040;DHT22;8124;48.634;8.120;2023-01-15T10:23:20;9.20;99.90
16040;DHT22;8124;48.634;8.120;2023-01-15T10:28:28;9.00;99.90
16040;DHT22;8124;48.634;8.120;2023-01-15T10:33:50;9.00;99.90
16040;DHT22;8124;48.634;8.120;2023-01-15T10:39:03;8.70;99.90
16040;DHT22;8124;48.634;8.120;2023-01-15T10:44:15;7.60;99.90
16040;DHT22;8124;48.634;8.120;2023-01-15T10:49:21;7.20;99.90
16040;DHT22;8124;48.634;8.120;2023-01-15T10:54:28;7.00;99.90
16040;DHT22;8124;48.634;8.120;2023-01-15T10:59:38;7.30;99.90
16040;DHT22;8124;48.634;8.120;2023-01-15T11:04:43;7.10;99.90
16040;DHT22;8124;48.634;8.120;2023-01-15T11:09:46;7.30;99.90
16040;DHT22;8124;48.634;8.120;2023-01-15T11:14:49;7.40;99.90
16040;DHT22;8124;48.634;8.120;2023-01-15T11:20:22;7.30;99.90
16040;DHT22;8124;48.634;8.120;2023-01-15T11:25:29;7.80;99.90
16040;DHT22;8124;48.634;8.120;2023-01-15T11:30:34;7.80;99.90
16040;DHT22;8124;48.634;8.120;2023-01-15T11:35:49;8.00;99.90
16040;DHT22;8124;48.634;8.120;2023-01-15T11:41:00;8.40;99.90
16040;DHT22;8124;48.634;8.120;2023-01-15T11:46:22;8.40;99.90
16040;DHT22;8124;48.634;8.120;2023-01-15T11:51:46;8.40;99.90
16040;DHT22;8124;48.634;8.120;2023-01-15T11:56:50;8.40;99.90
16040;DHT22;8124;48.634;8.120;2023-01-15T12:01:57;8.40;99.90
16040;DHT22;8124;48.634;8.120;2023-01-15T12:07:03;8.30;99.90
16040;DHT22;8124;48.634;8.120;2023-01-15T12:12:14;8.50;99.90
16040;DHT22;8124;48.634;8.120;2023-01-15T12:17:32;8.40;99.90
16040;DHT22;8124;48.634;8.120;2023-01-15T12:22:52;8.60;99.90
16040;DHT22;8124;48.634;8.120;2023-01-15T12:28:02;8.60;99.90
16040;DHT22;8124;48.634;8.120;2023-01-15T12:33:35;8.50;99.90
16040;DHT22;8124;48.634;8.120;2023-01-15T12:38:46;8.50;99.90
16040;DHT22;8124;48.634;8.120;2023-01-15T12:43:54;8.40;99.90
16040;DHT22;8124;48.634;8.120;2023-01-15T12:49:26;8.30;99.90
16040;DHT22;8124;48.634;8.120;2023-01-15T12:54:37;8.20;99.90
16040;DHT22;8124;48.634;8.120;2023-01-15T12:59:45;8.40;99.90
16040;DHT22;8124;48.634;8.120;2023-01-15T13:04:52;8.50;99.90
16040;DHT22;8124;48.634;8.120;2023-01-15T13:10:01;8.50;99.90
16040;DHT22;8124;48.634;8.120;2023-01-15T13:15:12;8.50;99.90
16040;DHT22;8124;48.634;8.120;2023-01-15T13:20:27;8.60;99.90
16040;DHT22;8124;48.634;8.120;2023-01-15T13:25:53;8.70;99.90
16040;DHT22;8124;48.634;8.120;2023-01-15T13:31:06;8.80;99.90
16040;DHT22;8124;48.634;8.120;2023-01-15T13:36:23;8.60;99.90
16040;DHT22;8124;48.634;8.120;2023-01-15T13:41:31;8.60;99.90
16040;DHT22;8124;48.634;8.120;2023-01-15T13:47:00;8.70;99.90
16040;DHT22;8124;48.634;8.120;2023-01-15T13:52:05;8.70;99.90
16040;DHT22;8124;48.634;8.120;2023-01-15T13:57:25;8.70;99.90
16040;DHT22;8124;48.634;8.120;2023-01-15T14:02:36;8.80;99.90
16040;DHT22;8124;48.634;8.120;2023-01-15T14:07:39;8.80;99.90
16040;DHT22;8124;48.634;8.120;2023-01-15T14:12:50;8.70;99.90
16040;DHT22;8124;48.634;8.120;2023-01-15T14:18:13;8.80;99.90
16040;DHT22;8124;48.634;8.120;2023-01-15T14:29:03;9.00;99.90
16040;DHT22;8124;48.634;8.120;2023-01-15T14:34:15;9.10;99.90
16040;DHT22;8124;48.634;8.120;2023-01-15T14:39:25;9.00;99.90
16040;DHT22;8124;48.634;8.120;2023-01-15T14:44:31;8.90;99.90
16040;DHT22;8124;48.634;8.120;2023-01-15T14:49:43;9.00;99.90
16040;DHT22;8124;48.634;8.120;2023-01-15T14:54:52;8.70;99.90
16040;DHT22;8124;48.634;8.120;2023-01-15T14:59:59;8.80;99.90
16040;DHT22;8124;48.634;8.120;2023-01-15T15:05:11;8.90;99.90
16040;DHT22;8124;48.634;8.120;2023-01-15T15:10:20;8.80;99.90
16040;DHT22;8124;48.634;8.120;2023-01-15T15:15:52;8.90;99.90
16040;DHT22;8124;48.634;8.120;2023-01-15T15:21:02;8.80;99.90
16040;DHT22;8124;48.634;8.120;2023-01-15T15:26:30;8.80;99.90
16040;DHT22;8124;48.634;8.120;2023-01-15T15:31:36;8.90;99.90
16040;DHT22;8124;48.634;8.120;2023-01-15T15:36:44;8.90;99.90
16040;DHT22;8124;48.634;8.120;2023-01-15T15:41:48;8.80;99.90
16040;DHT22;8124;48.634;8.120;2023-01-15T15:47:18;8.90;99.90
16040;DHT22;8124;48.634;8.120;2023-01-15T15:52:43;8.80;99.90
16040;DHT22;8124;48.634;8.120;2023-01-15T15:57:48;8.90;99.90
16040;DHT22;8124;48.634;8.120;2023-01-15T16:02:54;8.90;99.90
16040;DHT22;8124;48.634;8.120;2023-01-15T16:08:17;8.70;99.90
16040;DHT22;8124;48.634;8.120;2023-01-15T16:13:23;8.80;99.90
16040;DHT22;8124;48.634;8.120;2023-01-15T16:18:31;8.80;99.90
16040;DHT22;8124;48.634;8.120;2023-01-15T16:23:36;8.80;99.90
16040;DHT22;8124;48.634;8.120;2023-01-15T16:28:42;8.70;99.90
16040;DHT22;8124;48.634;8.120;2023-01-15T16:33:52;8.60;99.90
16040;DHT22;8124;48.634;8.120;2023-01-15T16:39:05;8.60;99.90
16040;DHT22;8124;48.634;8.120;2023-01-15T16:44:31;8.60;99.90
16040;DHT22;8124;48.634;8.120;2023-01-15T16:49:38;8.50;99.90
16040;DHT22;8124;48.634;8.120;2023-01-15T16:54:45;8.70;99.90
16040;DHT22;8124;48.634;8.120;2023-01-15T16:59:57;8.70;99.90
16040;DHT22;8124;48.634;8.120;2023-01-15T17:05:13;8.70;99.90
16040;DHT22;8124;48.634;8.120;2023-01-15T17:10:20;8.60;99.90
16040;DHT22;8124;48.634;8.120;2023-01-15T17:15:40;8.50;99.90
16040;DHT22;8124;48.634;8.120;2023-01-15T17:20:55;8.50;99.90
16040;DHT22;8124;48.634;8.120;2023-01-15T17:25:58;8.60;99.90
16040;DHT22;8124;48.634;8.120;2023-01-15T17:31:01;8.60;99.90
16040;DHT22;8124;48.634;8.120;2023-01-15T17:36:07;8.70;99.90
16040;DHT22;8124;48.634;8.120;2023-01-15T17:41:11;8.60;99.90
16040;DHT22;8124;48.634;8.120;2023-01-15T17:46:34;8.60;99.90
16040;DHT22;8124;48.634;8.120;2023-01-15T17:51:39;8.60;99.90
16040;DHT22;8124;48.634;8.120;2023-01-15T17:56:42;8.60;99.90
16040;DHT22;8124;48.634;8.120;2023-01-15T18:02:04;8.60;99.90
16040;DHT22;8124;48.634;8.120;2023-01-15T18:07:45;8.50;99.90
16040;DHT22;8124;48.634;8.120;2023-01-15T18:12:48;8.60;99.90
16040;DHT22;8124;48.634;8.120;2023-01-15T18:17:52;8.60;99.90
16040;DHT22;8124;48.634;8.120;2023-01-15T18:22:56;8.60;99.90
16040;DHT22;8124;48.634;8.120;2023-01-15T18:27:59;8.50;99.90
16040;DHT22;8124;48.634;8.120;2023-01-15T18:33:02;8.40;99.90
16040;DHT22;8124;48.634;8.120;2023-01-15T18:38:06;8.50;99.90
16040;DHT22;8124;48.634;8.120;2023-01-15T18:43:10;8.50;99.90
16040;DHT22;8124;48.634;8.120;2023-01-15T18:48:31;8.50;99.90
16040;DHT22;8124;48.634;8.120;2023-01-15T18:53:39;8.60;99.90
16040;DHT22;8124;48.634;8.120;2023-01-15T18:58:42;8.60;99.90
16040;DHT22;8124;48.634;8.120;2023-01-15T19:03:50;8.60;99.90
16040;DHT22;8124;48.634;8.120;2023-01-15T19:08:54;8.60;99.90
16040;DHT22;8124;48.634;8.120;2023-01-15T19:13:57;8.60;99.90
16040;DHT22;8124;48.634;8.120;2023-01-15T19:19:18;8.60;99.90
16040;DHT22;8124;48.634;8.120;2023-01-15T19:24:22;8.40;99.90
16040;DHT22;8124;48.634;8.120;2023-01-15T19:29:25;8.40;99.90
16040;DHT22;8124;48.634;8.120;2023-01-15T19:34:28;8.40;99.90
16040;DHT22;8124;48.634;8.120;2023-01-15T19:39:36;8.40;99.90
16040;DHT22;8124;48.634;8.120;2023-01-15T19:44:39;8.30;99.90
16040;DHT22;8124;48.634;8.120;2023-01-15T19:50:08;8.30;99.90
16040;DHT22;8124;48.634;8.120;2023-01-15T19:55:23;8.30;99.90
16040;DHT22;8124;48.634;8.120;2023-01-15T20:00:27;8.20;99.90
16040;DHT22;8124;48.634;8.120;2023-01-15T20:05:31;8.30;99.90
16040;DHT22;8124;48.634;8.120;2023-01-15T20:10:35;8.30;99.90
16040;DHT22;8124;48.634;8.120;2023-01-15T20:15:40;8.30;99.90
16040;DHT22;8124;48.634;8.120;2023-01-15T20:20:44;8.20;99.90
16040;DHT22;8124;48.634;8.120;2023-01-15T20:25:48;8.30;99.90
16040;DHT22;8124;48.634;8.120;2023-01-15T20:30:53;8.20;99.90
16040;DHT22;8124;48.634;8.120;2023-01-15T20:36:00;8.20;99.90
16040;DHT22;8124;48.634;8.120;2023-01-15T20:41:09;8.40;99.90
16040;DHT22;8124;48.634;8.120;2023-01-15T20:46:35;8.30;99.90
16040;DHT22;8124;48.634;8.120;2023-01-15T20:51:38;8.20;99.90
16040;DHT22;8124;48.634;8.120;2023-01-15T20:56:42;8.20;99.90
16040;DHT22;8124;48.634;8.120;2023-01-15T21:01:45;8.20;99.90
16040;DHT22;8124;48.634;8.120;2023-01-15T21:06:48;8.20;99.90
16040;DHT22;8124;48.634;8.120;2023-01-15T21:11:53;8.20;99.90
16040;DHT22;8124;48.634;8.120;2023-01-15T21:16:56;8.20;99.90
16040;DHT22;8124;48.634;8.120;2023-01-15T21:21:59;8.10;99.90
16040;DHT22;8124;48.634;8.120;2023-01-15T21:27:03;8.10;99.90
16040;DHT22;8124;48.634;8.120;2023-01-15T21:32:06;8.10;99.90
16040;DHT22;8124;48.634;8.120;2023-01-15T21:37:09;8.20;99.90
16040;DHT22;8124;48.634;8.120;2023-01-15T21:42:15;8.10;99.90
16040;DHT22;8124;48.634;8.120;2023-01-15T21:47:36;8.10;99.90
16040;DHT22;8124;48.634;8.120;2023-01-15T21:52:39;8.20;99.90
16040;DHT22;8124;48.634;8.120;2023-01-15T21:57:43;8.10;99.90
16040;DHT22;8124;48.634;8.120;2023-01-15T22:02:48;8.20;99.90
16040;DHT22;8124;48.634;8.120;2023-01-15T22:07:51;8.10;99.90
16040;DHT22;8124;48.634;8.120;2023-01-15T22:12:56;8.20;99.90
16040;DHT22;8124;48.634;8.120;2023-01-15T22:17:58;8.10;99.90
16040;DHT22;8124;48.634;8.120;2023-01-15T22:23:01;8.20;99.90
16040;DHT22;8124;48.634;8.120;2023-01-15T22:28:06;8.10;99.90
16040;DHT22;8124;48.634;8.120;2023-01-15T22:33:09;8.10;99.90
16040;DHT22;8124;48.634;8.120;2023-01-15T22:38:11;8.10;99.90
16040;DHT22;8124;48.634;8.120;2023-01-15T22:43:16;8.20;99.90
16040;DHT22;8124;48.634;8.120;2023-01-15T22:48:19;8.20;99.90
16040;DHT22;8124;48.634;8.120;2023-01-15T22:53:21;8.30;99.90
16040;DHT22;8124;48.634;8.120;2023-01-15T22:58:26;8.30;99.90
16040;DHT22;8124;48.634;8.120;2023-01-15T23:03:33;8.40;99.90
16040;DHT22;8124;48.634;8.120;2023-01-15T23:08:37;8.30;99.90
16040;DHT22;8124;48.634;8.120;2023-01-15T23:13:56;8.40;99.90
16040;DHT22;8124;48.634;8.120;2023-01-15T23:18:58;8.40;99.90
16040;DHT22;8124;48.634;8.120;2023-01-15T23:24:02;8.40;99.90
16040;DHT22;8124;48.634;8.120;2023-01-15T23:29:06;8.50;99.90
16040;DHT22;8124;48.634;8.120;2023-01-15T23:34:09;8.40;99.90
16040;DHT22;8124;48.634;8.120;2023-01-15T23:39:13;8.50;99.90
16040;DHT22;8124;48.634;8.120;2023-01-15T23:44:18;8.50;99.90
16040;DHT22;8124;48.634;8.120;2023-01-15T23:49:39;8.40;99.90
16040;DHT22;8124;48.634;8.120;2023-01-15T23:54:42;8.40;99.90
16040;DHT22;8124;48.634;8.120;2023-01-15T23:59:46;8.50;99.90
